Hydro, Oklahoma
Current Conditions -  °F | °C
As of 4:35 PM on Friday 24 Oct 2014 (Local Time) from KOJA Reporting Station
Clear Clear  
Wind Chill: 82°   Ceiling: Unl
Heat Index: 82°   Visibility: 10mi
Dew Point: 59°   Wind: 12mph
Humidity: 45%   Direction: 230°SW
Pressure: 30.02"   Gusts: 16mph
Location:  35.55°N, 98.58°W
Report Text: KOJA 242135Z AUTO 23010G14KT 10SM CLR 28/15 A3002 RMK AO2
Loading
Personal Weather Stations






























Interactive Weather Map
Tropical Storm Tracking
New forecast layout! Learn more

10-Day Weather Forecast

Advertisements
Track Severe Weather on mobile